sensor_id;sensor_type;location;lat;lon;timestamp;P1;durP1;ratioP1;P2;durP2;ratioP2
29280;SDS011;25048;49.590;11.026;2023-06-26T00:01:44;8.10;;;5.65;;
29280;SDS011;25048;49.590;11.026;2023-06-26T00:04:11;8.65;;;5.90;;
29280;SDS011;25048;49.590;11.026;2023-06-26T00:06:40;9.75;;;5.33;;
29280;SDS011;25048;49.590;11.026;2023-06-26T00:09:08;8.45;;;5.90;;
29280;SDS011;25048;49.590;11.026;2023-06-26T00:11:35;7.83;;;5.58;;
29280;SDS011;25048;49.590;11.026;2023-06-26T00:14:03;9.40;;;6.00;;
29280;SDS011;25048;49.590;11.026;2023-06-26T00:16:30;17.75;;;6.67;;
29280;SDS011;25048;49.590;11.026;2023-06-26T00:18:58;8.93;;;6.20;;
29280;SDS011;25048;49.590;11.026;2023-06-26T00:21:26;7.83;;;5.67;;
29280;SDS011;25048;49.590;11.026;2023-06-26T00:23:53;7.75;;;5.67;;
29280;SDS011;25048;49.590;11.026;2023-06-26T00:26:21;7.78;;;5.65;;
29280;SDS011;25048;49.590;11.026;2023-06-26T00:28:49;19.50;;;6.08;;
29280;SDS011;25048;49.590;11.026;2023-06-26T00:31:17;9.85;;;6.72;;
29280;SDS011;25048;49.590;11.026;2023-06-26T00:33:44;7.47;;;5.87;;
29280;SDS011;25048;49.590;11.026;2023-06-26T00:36:12;8.43;;;6.03;;
29280;SDS011;25048;49.590;11.026;2023-06-26T00:38:40;8.45;;;6.17;;
29280;SDS011;25048;49.590;11.026;2023-06-26T00:41:07;9.77;;;6.00;;
29280;SDS011;25048;49.590;11.026;2023-06-26T00:43:36;7.45;;;5.65;;
29280;SDS011;25048;49.590;11.026;2023-06-26T00:46:06;9.90;;;5.90;;
29280;SDS011;25048;49.590;11.026;2023-06-26T00:48:36;8.70;;;6.20;;
29280;SDS011;25048;49.590;11.026;2023-06-26T00:51:05;8.15;;;6.00;;
29280;SDS011;25048;49.590;11.026;2023-06-26T00:53:32;7.97;;;5.92;;
29280;SDS011;25048;49.590;11.026;2023-06-26T00:56:00;7.85;;;5.83;;
29280;SDS011;25048;49.590;11.026;2023-06-26T00:58:29;8.70;;;6.30;;
29280;SDS011;25048;49.590;11.026;2023-06-26T01:00:57;8.53;;;6.22;;
29280;SDS011;25048;49.590;11.026;2023-06-26T01:03:26;7.58;;;6.15;;
29280;SDS011;25048;49.590;11.026;2023-06-26T01:05:57;9.30;;;6.50;;
29280;SDS011;25048;49.590;11.026;2023-06-26T01:08:26;9.05;;;6.37;;
29280;SDS011;25048;49.590;11.026;2023-06-26T01:10:54;8.88;;;6.22;;
29280;SDS011;25048;49.590;11.026;2023-06-26T01:13:22;8.50;;;6.50;;
29280;SDS011;25048;49.590;11.026;2023-06-26T01:15:50;8.63;;;6.53;;
29280;SDS011;25048;49.590;11.026;2023-06-26T01:18:19;8.75;;;6.45;;
29280;SDS011;25048;49.590;11.026;2023-06-26T01:20:47;10.03;;;6.37;;
29280;SDS011;25048;49.590;11.026;2023-06-26T01:23:31;11.33;;;6.60;;
29280;SDS011;25048;49.590;11.026;2023-06-26T01:26:21;9.90;;;6.50;;
29280;SDS011;25048;49.590;11.026;2023-06-26T01:28:50;10.20;;;6.58;;
29280;SDS011;25048;49.590;11.026;2023-06-26T01:31:19;8.37;;;6.50;;
29280;SDS011;25048;49.590;11.026;2023-06-26T01:33:47;13.37;;;7.23;;
29280;SDS011;25048;49.590;11.026;2023-06-26T01:36:16;8.73;;;6.80;;
29280;SDS011;25048;49.590;11.026;2023-06-26T01:38:44;8.93;;;6.10;;
29280;SDS011;25048;49.590;11.026;2023-06-26T01:41:11;8.68;;;6.97;;
29280;SDS011;25048;49.590;11.026;2023-06-26T01:44:01;9.77;;;6.70;;
29280;SDS011;25048;49.590;11.026;2023-06-26T01:46:48;9.48;;;6.47;;
29280;SDS011;25048;49.590;11.026;2023-06-26T01:49:20;12.40;;;7.60;;
29280;SDS011;25048;49.590;11.026;2023-06-26T01:51:58;11.12;;;6.83;;
29280;SDS011;25048;49.590;11.026;2023-06-26T01:54:33;10.63;;;7.37;;
29280;SDS011;25048;49.590;11.026;2023-06-26T01:57:02;13.83;;;6.75;;
29280;SDS011;25048;49.590;11.026;2023-06-26T01:59:31;10.35;;;6.97;;
29280;SDS011;25048;49.590;11.026;2023-06-26T02:02:02;11.20;;;7.00;;
29280;SDS011;25048;49.590;11.026;2023-06-26T02:04:34;9.93;;;6.45;;
29280;SDS011;25048;49.590;11.026;2023-06-26T02:07:03;10.25;;;6.37;;
29280;SDS011;25048;49.590;11.026;2023-06-26T02:09:31;7.50;;;6.33;;
29280;SDS011;25048;49.590;11.026;2023-06-26T02:11:58;10.27;;;7.20;;
29280;SDS011;25048;49.590;11.026;2023-06-26T02:14:26;7.47;;;6.35;;
29280;SDS011;25048;49.590;11.026;2023-06-26T02:16:53;11.38;;;6.72;;
29280;SDS011;25048;49.590;11.026;2023-06-26T02:19:21;11.45;;;7.15;;
29280;SDS011;25048;49.590;11.026;2023-06-26T02:21:48;9.67;;;7.17;;
29280;SDS011;25048;49.590;11.026;2023-06-26T02:24:16;12.73;;;6.65;;
29280;SDS011;25048;49.590;11.026;2023-06-26T02:26:44;6.78;;;5.85;;
29280;SDS011;25048;49.590;11.026;2023-06-26T02:29:12;10.43;;;7.17;;
29280;SDS011;25048;49.590;11.026;2023-06-26T02:31:39;7.37;;;5.90;;
29280;SDS011;25048;49.590;11.026;2023-06-26T02:34:07;9.23;;;6.33;;
29280;SDS011;25048;49.590;11.026;2023-06-26T02:36:34;9.93;;;7.03;;
29280;SDS011;25048;49.590;11.026;2023-06-26T02:39:02;8.55;;;6.60;;
29280;SDS011;25048;49.590;11.026;2023-06-26T02:41:29;10.95;;;7.10;;
29280;SDS011;25048;49.590;11.026;2023-06-26T02:43:57;14.85;;;6.70;;
29280;SDS011;25048;49.590;11.026;2023-06-26T02:46:24;10.03;;;6.87;;
29280;SDS011;25048;49.590;11.026;2023-06-26T02:48:52;9.28;;;6.85;;
29280;SDS011;25048;49.590;11.026;2023-06-26T02:51:19;8.20;;;6.57;;
29280;SDS011;25048;49.590;11.026;2023-06-26T02:53:47;10.73;;;6.03;;
29280;SDS011;25048;49.590;11.026;2023-06-26T02:56:14;10.70;;;6.85;;
29280;SDS011;25048;49.590;11.026;2023-06-26T02:58:42;8.50;;;6.10;;
29280;SDS011;25048;49.590;11.026;2023-06-26T03:01:09;10.38;;;6.37;;
29280;SDS011;25048;49.590;11.026;2023-06-26T03:03:37;8.07;;;6.77;;
29280;SDS011;25048;49.590;11.026;2023-06-26T03:06:06;8.28;;;6.58;;
29280;SDS011;25048;49.590;11.026;2023-06-26T03:08:37;12.23;;;7.77;;
29280;SDS011;25048;49.590;11.026;2023-06-26T03:11:08;11.13;;;6.53;;
29280;SDS011;25048;49.590;11.026;2023-06-26T03:13:36;9.90;;;6.80;;
29280;SDS011;25048;49.590;11.026;2023-06-26T03:16:04;9.58;;;6.85;;
29280;SDS011;25048;49.590;11.026;2023-06-26T03:18:31;11.93;;;6.73;;
29280;SDS011;25048;49.590;11.026;2023-06-26T03:20:59;10.85;;;6.37;;
29280;SDS011;25048;49.590;11.026;2023-06-26T03:23:26;9.97;;;7.13;;
29280;SDS011;25048;49.590;11.026;2023-06-26T03:25:54;8.50;;;6.73;;
29280;SDS011;25048;49.590;11.026;2023-06-26T03:28:21;11.53;;;6.97;;
29280;SDS011;25048;49.590;11.026;2023-06-26T03:30:49;8.73;;;6.67;;
29280;SDS011;25048;49.590;11.026;2023-06-26T03:33:16;13.18;;;7.37;;
29280;SDS011;25048;49.590;11.026;2023-06-26T03:35:44;10.47;;;6.87;;
29280;SDS011;25048;49.590;11.026;2023-06-26T03:38:11;9.70;;;6.92;;
29280;SDS011;25048;49.590;11.026;2023-06-26T03:40:39;11.65;;;6.47;;
29280;SDS011;25048;49.590;11.026;2023-06-26T03:43:06;11.12;;;6.85;;
29280;SDS011;25048;49.590;11.026;2023-06-26T03:45:34;9.43;;;6.90;;
29280;SDS011;25048;49.590;11.026;2023-06-26T03:48:01;9.20;;;6.27;;
29280;SDS011;25048;49.590;11.026;2023-06-26T03:50:29;9.30;;;7.47;;
29280;SDS011;25048;49.590;11.026;2023-06-26T03:52:57;8.68;;;6.17;;
29280;SDS011;25048;49.590;11.026;2023-06-26T03:55:25;11.85;;;6.72;;
29280;SDS011;25048;49.590;11.026;2023-06-26T03:57:52;8.00;;;6.53;;
29280;SDS011;25048;49.590;11.026;2023-06-26T04:00:20;7.67;;;6.30;;
29280;SDS011;25048;49.590;11.026;2023-06-26T04:02:47;9.33;;;6.57;;
29280;SDS011;25048;49.590;11.026;2023-06-26T04:05:16;9.47;;;6.83;;
29280;SDS011;25048;49.590;11.026;2023-06-26T04:07:44;12.23;;;6.63;;
29280;SDS011;25048;49.590;11.026;2023-06-26T04:10:12;9.13;;;6.47;;
29280;SDS011;25048;49.590;11.026;2023-06-26T04:12:39;9.77;;;6.67;;
29280;SDS011;25048;49.590;11.026;2023-06-26T04:15:07;12.10;;;6.93;;
29280;SDS011;25048;49.590;11.026;2023-06-26T04:17:35;9.60;;;6.90;;
29280;SDS011;25048;49.590;11.026;2023-06-26T04:20:03;10.75;;;6.90;;
29280;SDS011;25048;49.590;11.026;2023-06-26T04:22:34;10.07;;;7.50;;
29280;SDS011;25048;49.590;11.026;2023-06-26T04:25:02;10.83;;;7.43;;
29280;SDS011;25048;49.590;11.026;2023-06-26T04:27:30;10.00;;;7.03;;
29280;SDS011;25048;49.590;11.026;2023-06-26T04:29:57;10.40;;;6.62;;
29280;SDS011;25048;49.590;11.026;2023-06-26T04:32:25;9.70;;;6.70;;
29280;SDS011;25048;49.590;11.026;2023-06-26T04:34:52;11.17;;;6.77;;
29280;SDS011;25048;49.590;11.026;2023-06-26T04:37:20;8.70;;;7.37;;
29280;SDS011;25048;49.590;11.026;2023-06-26T04:39:48;8.18;;;6.08;;
29280;SDS011;25048;49.590;11.026;2023-06-26T04:42:15;8.90;;;7.28;;
29280;SDS011;25048;49.590;11.026;2023-06-26T04:44:43;8.58;;;6.50;;
29280;SDS011;25048;49.590;11.026;2023-06-26T04:47:10;10.45;;;6.72;;
29280;SDS011;25048;49.590;11.026;2023-06-26T04:49:40;8.95;;;6.58;;
29280;SDS011;25048;49.590;11.026;2023-06-26T04:52:09;8.08;;;6.33;;
29280;SDS011;25048;49.590;11.026;2023-06-26T04:54:38;8.30;;;6.47;;
29280;SDS011;25048;49.590;11.026;2023-06-26T04:57:06;9.13;;;6.75;;
29280;SDS011;25048;49.590;11.026;2023-06-26T04:59:34;20.45;;;8.33;;
29280;SDS011;25048;49.590;11.026;2023-06-26T05:02:02;10.25;;;6.12;;
29280;SDS011;25048;49.590;11.026;2023-06-26T05:04:30;9.93;;;6.53;;
29280;SDS011;25048;49.590;11.026;2023-06-26T05:06:59;9.45;;;6.17;;
29280;SDS011;25048;49.590;11.026;2023-06-26T05:09:26;8.03;;;6.50;;
29280;SDS011;25048;49.590;11.026;2023-06-26T05:11:54;8.65;;;5.90;;
29280;SDS011;25048;49.590;11.026;2023-06-26T05:14:21;10.25;;;6.92;;
29280;SDS011;25048;49.590;11.026;2023-06-26T05:16:49;9.45;;;6.00;;
29280;SDS011;25048;49.590;11.026;2023-06-26T05:19:16;11.63;;;6.20;;
29280;SDS011;25048;49.590;11.026;2023-06-26T05:21:44;10.30;;;6.42;;
29280;SDS011;25048;49.590;11.026;2023-06-26T05:24:12;8.75;;;7.10;;
29280;SDS011;25048;49.590;11.026;2023-06-26T05:26:41;6.12;;;5.10;;
29280;SDS011;25048;49.590;11.026;2023-06-26T05:29:09;10.03;;;6.12;;
29280;SDS011;25048;49.590;11.026;2023-06-26T05:31:39;7.97;;;6.15;;
29280;SDS011;25048;49.590;11.026;2023-06-26T05:34:07;9.88;;;6.22;;
29280;SDS011;25048;49.590;11.026;2023-06-26T05:36:37;7.03;;;5.30;;
29280;SDS011;25048;49.590;11.026;2023-06-26T05:39:08;7.92;;;5.92;;
29280;SDS011;25048;49.590;11.026;2023-06-26T05:41:36;8.48;;;5.85;;
29280;SDS011;25048;49.590;11.026;2023-06-26T05:44:04;7.30;;;5.53;;
29280;SDS011;25048;49.590;11.026;2023-06-26T05:46:31;8.38;;;5.30;;
29280;SDS011;25048;49.590;11.026;2023-06-26T05:48:59;6.00;;;5.03;;
29280;SDS011;25048;49.590;11.026;2023-06-26T05:51:27;8.13;;;5.80;;
29280;SDS011;25048;49.590;11.026;2023-06-26T05:53:55;7.15;;;5.30;;
29280;SDS011;25048;49.590;11.026;2023-06-26T05:56:23;6.87;;;4.78;;
29280;SDS011;25048;49.590;11.026;2023-06-26T05:58:50;5.62;;;4.75;;
29280;SDS011;25048;49.590;11.026;2023-06-26T06:01:19;6.78;;;5.12;;
29280;SDS011;25048;49.590;11.026;2023-06-26T06:03:46;7.90;;;5.35;;
29280;SDS011;25048;49.590;11.026;2023-06-26T06:06:14;6.33;;;4.87;;
29280;SDS011;25048;49.590;11.026;2023-06-26T06:08:41;6.92;;;4.90;;
29280;SDS011;25048;49.590;11.026;2023-06-26T06:11:09;6.45;;;5.12;;
29280;SDS011;25048;49.590;11.026;2023-06-26T06:13:37;6.47;;;4.67;;
29280;SDS011;25048;49.590;11.026;2023-06-26T06:16:04;7.22;;;5.25;;
29280;SDS011;25048;49.590;11.026;2023-06-26T06:18:32;8.38;;;5.45;;
29280;SDS011;25048;49.590;11.026;2023-06-26T06:20:59;6.45;;;5.28;;
29280;SDS011;25048;49.590;11.026;2023-06-26T06:23:27;7.05;;;5.10;;
29280;SDS011;25048;49.590;11.026;2023-06-26T06:25:54;7.50;;;5.12;;
29280;SDS011;25048;49.590;11.026;2023-06-26T06:28:22;7.50;;;5.30;;
29280;SDS011;25048;49.590;11.026;2023-06-26T06:30:49;7.53;;;5.47;;
29280;SDS011;25048;49.590;11.026;2023-06-26T06:33:17;7.17;;;5.90;;
29280;SDS011;25048;49.590;11.026;2023-06-26T06:35:44;7.00;;;5.17;;
29280;SDS011;25048;49.590;11.026;2023-06-26T06:38:12;5.97;;;5.03;;
29280;SDS011;25048;49.590;11.026;2023-06-26T06:40:39;6.85;;;5.55;;
29280;SDS011;25048;49.590;11.026;2023-06-26T06:43:07;7.40;;;5.03;;
29280;SDS011;25048;49.590;11.026;2023-06-26T06:45:34;7.75;;;5.45;;
29280;SDS011;25048;49.590;11.026;2023-06-26T06:48:04;7.90;;;5.33;;
29280;SDS011;25048;49.590;11.026;2023-06-26T06:50:32;6.95;;;5.33;;
29280;SDS011;25048;49.590;11.026;2023-06-26T06:52:59;10.05;;;5.67;;
29280;SDS011;25048;49.590;11.026;2023-06-26T06:55:27;7.42;;;5.53;;
29280;SDS011;25048;49.590;11.026;2023-06-26T06:57:54;9.75;;;5.47;;
29280;SDS011;25048;49.590;11.026;2023-06-26T07:00:22;7.30;;;5.10;;
29280;SDS011;25048;49.590;11.026;2023-06-26T07:02:50;7.97;;;5.47;;
29280;SDS011;25048;49.590;11.026;2023-06-26T07:05:17;7.20;;;4.85;;
29280;SDS011;25048;49.590;11.026;2023-06-26T07:07:45;12.35;;;5.25;;
29280;SDS011;25048;49.590;11.026;2023-06-26T07:10:13;8.58;;;6.22;;
29280;SDS011;25048;49.590;11.026;2023-06-26T07:12:41;7.12;;;5.35;;
29280;SDS011;25048;49.590;11.026;2023-06-26T07:15:09;7.37;;;5.40;;
29280;SDS011;25048;49.590;11.026;2023-06-26T07:17:37;10.90;;;5.37;;
29280;SDS011;25048;49.590;11.026;2023-06-26T07:20:05;7.70;;;4.85;;
29280;SDS011;25048;49.590;11.026;2023-06-26T07:22:34;7.45;;;5.03;;
29280;SDS011;25048;49.590;11.026;2023-06-26T07:25:02;7.17;;;5.35;;
29280;SDS011;25048;49.590;11.026;2023-06-26T07:27:30;7.80;;;5.28;;
29280;SDS011;25048;49.590;11.026;2023-06-26T07:29:59;8.15;;;5.28;;
29280;SDS011;25048;49.590;11.026;2023-06-26T07:32:26;13.48;;;5.85;;
29280;SDS011;25048;49.590;11.026;2023-06-26T07:34:54;7.65;;;5.92;;
29280;SDS011;25048;49.590;11.026;2023-06-26T07:37:21;6.90;;;5.17;;
29280;SDS011;25048;49.590;11.026;2023-06-26T07:39:49;12.05;;;5.78;;
29280;SDS011;25048;49.590;11.026;2023-06-26T07:42:16;8.73;;;6.03;;
29280;SDS011;25048;49.590;11.026;2023-06-26T07:44:44;8.70;;;5.62;;
29280;SDS011;25048;49.590;11.026;2023-06-26T07:47:12;6.90;;;5.50;;
29280;SDS011;25048;49.590;11.026;2023-06-26T07:49:39;7.47;;;5.67;;
29280;SDS011;25048;49.590;11.026;2023-06-26T07:52:07;12.82;;;6.42;;
29280;SDS011;25048;49.590;11.026;2023-06-26T07:54:37;10.43;;;6.12;;
29280;SDS011;25048;49.590;11.026;2023-06-26T07:57:05;9.78;;;6.70;;
29280;SDS011;25048;49.590;11.026;2023-06-26T07:59:37;8.45;;;6.12;;
29280;SDS011;25048;49.590;11.026;2023-06-26T08:02:05;7.83;;;5.20;;
29280;SDS011;25048;49.590;11.026;2023-06-26T08:04:33;7.83;;;5.78;;
29280;SDS011;25048;49.590;11.026;2023-06-26T08:07:01;10.45;;;5.90;;
29280;SDS011;25048;49.590;11.026;2023-06-26T08:09:30;8.08;;;6.42;;
29280;SDS011;25048;49.590;11.026;2023-06-26T08:11:58;7.55;;;5.85;;
29280;SDS011;25048;49.590;11.026;2023-06-26T08:14:26;7.85;;;5.80;;
29280;SDS011;25048;49.590;11.026;2023-06-26T08:16:54;7.92;;;5.92;;
29280;SDS011;25048;49.590;11.026;2023-06-26T08:19:21;14.00;;;6.42;;
29280;SDS011;25048;49.590;11.026;2023-06-26T08:21:49;8.95;;;6.10;;
29280;SDS011;25048;49.590;11.026;2023-06-26T08:24:16;12.25;;;6.30;;
29280;SDS011;25048;49.590;11.026;2023-06-26T08:26:45;13.95;;;5.95;;
29280;SDS011;25048;49.590;11.026;2023-06-26T08:29:13;11.60;;;6.22;;
29280;SDS011;25048;49.590;11.026;2023-06-26T08:31:41;7.97;;;6.30;;
29280;SDS011;25048;49.590;11.026;2023-06-26T08:34:09;8.05;;;5.92;;
29280;SDS011;25048;49.590;11.026;2023-06-26T08:36:37;7.90;;;5.92;;
29280;SDS011;25048;49.590;11.026;2023-06-26T08:39:05;9.30;;;6.25;;
29280;SDS011;25048;49.590;11.026;2023-06-26T08:41:34;10.03;;;6.30;;
29280;SDS011;25048;49.590;11.026;2023-06-26T08:44:02;8.40;;;6.53;;
29280;SDS011;25048;49.590;11.026;2023-06-26T08:46:30;8.28;;;6.33;;
29280;SDS011;25048;49.590;11.026;2023-06-26T08:49:04;10.35;;;6.25;;
29280;SDS011;25048;49.590;11.026;2023-06-26T08:51:42;7.72;;;6.30;;
29280;SDS011;25048;49.590;11.026;2023-06-26T08:54:12;7.67;;;6.10;;
29280;SDS011;25048;49.590;11.026;2023-06-26T08:56:42;8.93;;;6.78;;
29280;SDS011;25048;49.590;11.026;2023-06-26T08:59:12;8.15;;;5.92;;
29280;SDS011;25048;49.590;11.026;2023-06-26T09:01:41;7.03;;;5.90;;
29280;SDS011;25048;49.590;11.026;2023-06-26T09:04:09;11.53;;;6.60;;
29280;SDS011;25048;49.590;11.026;2023-06-26T09:06:36;6.53;;;5.75;;
29280;SDS011;25048;49.590;11.026;2023-06-26T09:09:05;9.40;;;6.10;;
29280;SDS011;25048;49.590;11.026;2023-06-26T09:11:33;11.18;;;6.12;;
29280;SDS011;25048;49.590;11.026;2023-06-26T09:14:00;11.08;;;6.80;;
29280;SDS011;25048;49.590;11.026;2023-06-26T09:16:30;8.35;;;6.12;;
29280;SDS011;25048;49.590;11.026;2023-06-26T09:18:58;7.70;;;5.87;;
29280;SDS011;25048;49.590;11.026;2023-06-26T09:21:25;7.62;;;6.60;;
29280;SDS011;25048;49.590;11.026;2023-06-26T09:23:53;7.95;;;6.10;;
29280;SDS011;25048;49.590;11.026;2023-06-26T09:26:21;8.55;;;6.42;;
29280;SDS011;25048;49.590;11.026;2023-06-26T09:28:49;7.78;;;5.70;;
29280;SDS011;25048;49.590;11.026;2023-06-26T09:31:18;8.60;;;6.03;;
29280;SDS011;25048;49.590;11.026;2023-06-26T09:33:46;8.20;;;6.37;;
29280;SDS011;25048;49.590;11.026;2023-06-26T09:36:19;8.15;;;5.92;;
29280;SDS011;25048;49.590;11.026;2023-06-26T09:38:48;9.25;;;6.20;;
29280;SDS011;25048;49.590;11.026;2023-06-26T09:41:22;8.03;;;6.25;;
29280;SDS011;25048;49.590;11.026;2023-06-26T09:43:46;8.63;;;5.53;;
29280;SDS011;25048;49.590;11.026;2023-06-26T09:46:17;11.38;;;5.83;;
29280;SDS011;25048;49.590;11.026;2023-06-26T09:49:06;7.37;;;5.60;;
29280;SDS011;25048;49.590;11.026;2023-06-26T09:51:36;6.60;;;5.83;;
29280;SDS011;25048;49.590;11.026;2023-06-26T09:54:05;7.58;;;5.62;;
29280;SDS011;25048;49.590;11.026;2023-06-26T09:56:34;6.30;;;5.62;;
29280;SDS011;25048;49.590;11.026;2023-06-26T09:59:03;6.62;;;5.45;;
29280;SDS011;25048;49.590;11.026;2023-06-26T10:01:31;7.35;;;5.40;;
29280;SDS011;25048;49.590;11.026;2023-06-26T10:03:59;6.90;;;5.35;;
29280;SDS011;25048;49.590;11.026;2023-06-26T10:06:28;7.58;;;5.80;;
29280;SDS011;25048;49.590;11.026;2023-06-26T10:09:01;8.25;;;5.95;;
29280;SDS011;25048;49.590;11.026;2023-06-26T10:11:32;10.13;;;6.10;;
29280;SDS011;25048;49.590;11.026;2023-06-26T10:14:01;7.60;;;5.50;;
29280;SDS011;25048;49.590;11.026;2023-06-26T10:16:31;9.98;;;5.58;;
29280;SDS011;25048;49.590;11.026;2023-06-26T10:19:01;9.63;;;7.12;;
29280;SDS011;25048;49.590;11.026;2023-06-26T10:21:30;6.67;;;5.42;;
29280;SDS011;25048;49.590;11.026;2023-06-26T10:24:02;9.43;;;5.78;;
29280;SDS011;25048;49.590;11.026;2023-06-26T10:26:31;11.12;;;5.65;;
29280;SDS011;25048;49.590;11.026;2023-06-26T10:29:02;9.33;;;5.80;;
29280;SDS011;25048;49.590;11.026;2023-06-26T10:31:30;9.63;;;5.25;;
29280;SDS011;25048;49.590;11.026;2023-06-26T10:33:58;8.60;;;5.50;;
29280;SDS011;25048;49.590;11.026;2023-06-26T10:36:29;7.47;;;5.33;;
29280;SDS011;25048;49.590;11.026;2023-06-26T10:38:58;7.00;;;5.47;;
29280;SDS011;25048;49.590;11.026;2023-06-26T10:41:37;6.90;;;5.67;;
29280;SDS011;25048;49.590;11.026;2023-06-26T10:44:11;6.97;;;4.83;;
29280;SDS011;25048;49.590;11.026;2023-06-26T10:46:55;6.95;;;5.50;;
29280;SDS011;25048;49.590;11.026;2023-06-26T10:49:20;6.28;;;5.45;;
29280;SDS011;25048;49.590;11.026;2023-06-26T10:51:50;6.80;;;5.03;;
29280;SDS011;25048;49.590;11.026;2023-06-26T10:54:19;5.50;;;4.70;;
29280;SDS011;25048;49.590;11.026;2023-06-26T10:56:48;5.87;;;5.12;;
29280;SDS011;25048;49.590;11.026;2023-06-26T10:59:21;5.72;;;4.95;;
29280;SDS011;25048;49.590;11.026;2023-06-26T11:01:57;6.37;;;5.40;;
29280;SDS011;25048;49.590;11.026;2023-06-26T11:07:21;7.92;;;4.45;;
29280;SDS011;25048;49.590;11.026;2023-06-26T11:10:07;8.85;;;5.53;;
29280;SDS011;25048;49.590;11.026;2023-06-26T11:15:08;5.97;;;4.85;;
29280;SDS011;25048;49.590;11.026;2023-06-26T11:17:37;7.55;;;5.33;;
29280;SDS011;25048;49.590;11.026;2023-06-26T11:20:05;6.75;;;5.22;;
29280;SDS011;25048;49.590;11.026;2023-06-26T11:22:37;6.37;;;5.33;;
29280;SDS011;25048;49.590;11.026;2023-06-26T11:25:06;7.58;;;5.37;;
29280;SDS011;25048;49.590;11.026;2023-06-26T11:30:11;5.87;;;5.10;;
29280;SDS011;25048;49.590;11.026;2023-06-26T11:32:40;5.45;;;4.95;;
29280;SDS011;25048;49.590;11.026;2023-06-26T11:35:08;6.22;;;4.87;;
29280;SDS011;25048;49.590;11.026;2023-06-26T11:37:35;7.28;;;5.87;;
29280;SDS011;25048;49.590;11.026;2023-06-26T11:40:15;6.55;;;5.20;;
29280;SDS011;25048;49.590;11.026;2023-06-26T11:42:44;6.17;;;4.83;;
29280;SDS011;25048;49.590;11.026;2023-06-26T11:45:12;7.12;;;5.28;;
29280;SDS011;25048;49.590;11.026;2023-06-26T11:47:40;5.15;;;4.58;;
29280;SDS011;25048;49.590;11.026;2023-06-26T11:50:14;6.40;;;4.95;;
29280;SDS011;25048;49.590;11.026;2023-06-26T11:52:40;5.17;;;4.22;;
29280;SDS011;25048;49.590;11.026;2023-06-26T11:55:08;5.55;;;4.85;;
29280;SDS011;25048;49.590;11.026;2023-06-26T11:57:37;7.05;;;5.25;;
29280;SDS011;25048;49.590;11.026;2023-06-26T12:00:11;6.87;;;4.95;;
29280;SDS011;25048;49.590;11.026;2023-06-26T12:02:40;4.90;;;4.30;;
29280;SDS011;25048;49.590;11.026;2023-06-26T12:05:08;5.90;;;4.83;;
29280;SDS011;25048;49.590;11.026;2023-06-26T12:07:36;5.37;;;4.53;;
29280;SDS011;25048;49.590;11.026;2023-06-26T12:10:04;7.35;;;4.45;;
29280;SDS011;25048;49.590;11.026;2023-06-26T12:12:32;4.55;;;4.15;;
29280;SDS011;25048;49.590;11.026;2023-06-26T12:15:00;6.50;;;4.10;;
29280;SDS011;25048;49.590;11.026;2023-06-26T12:17:28;7.08;;;4.15;;
29280;SDS011;25048;49.590;11.026;2023-06-26T12:19:56;5.92;;;4.58;;
29280;SDS011;25048;49.590;11.026;2023-06-26T12:22:24;4.72;;;4.15;;
29280;SDS011;25048;49.590;11.026;2023-06-26T12:24:53;4.45;;;3.90;;
29280;SDS011;25048;49.590;11.026;2023-06-26T12:27:23;4.37;;;3.98;;
29280;SDS011;25048;49.590;11.026;2023-06-26T12:29:52;5.35;;;4.15;;
29280;SDS011;25048;49.590;11.026;2023-06-26T12:32:24;4.83;;;3.80;;
29280;SDS011;25048;49.590;11.026;2023-06-26T12:34:52;4.42;;;4.03;;
29280;SDS011;25048;49.590;11.026;2023-06-26T12:37:19;6.83;;;3.95;;
29280;SDS011;25048;49.590;11.026;2023-06-26T12:42:21;4.60;;;4.17;;
29280;SDS011;25048;49.590;11.026;2023-06-26T12:44:50;3.85;;;3.47;;
29280;SDS011;25048;49.590;11.026;2023-06-26T12:47:23;4.92;;;4.50;;
29280;SDS011;25048;49.590;11.026;2023-06-26T12:49:50;4.30;;;3.90;;
29280;SDS011;25048;49.590;11.026;2023-06-26T12:52:18;6.12;;;4.40;;
29280;SDS011;25048;49.590;11.026;2023-06-26T12:54:46;4.80;;;4.30;;
29280;SDS011;25048;49.590;11.026;2023-06-26T12:57:15;5.03;;;4.37;;
29280;SDS011;25048;49.590;11.026;2023-06-26T12:59:43;4.78;;;4.22;;
29280;SDS011;25048;49.590;11.026;2023-06-26T13:02:10;4.97;;;4.30;;
29280;SDS011;25048;49.590;11.026;2023-06-26T13:04:38;6.40;;;4.53;;
29280;SDS011;25048;49.590;11.026;2023-06-26T13:07:06;4.78;;;4.28;;
29280;SDS011;25048;49.590;11.026;2023-06-26T13:09:34;7.87;;;4.80;;
29280;SDS011;25048;49.590;11.026;2023-06-26T13:12:03;5.62;;;4.72;;
29280;SDS011;25048;49.590;11.026;2023-06-26T13:14:32;5.72;;;4.90;;
29280;SDS011;25048;49.590;11.026;2023-06-26T13:17:02;5.45;;;4.62;;
29280;SDS011;25048;49.590;11.026;2023-06-26T13:19:30;4.95;;;4.05;;
29280;SDS011;25048;49.590;11.026;2023-06-26T13:21:58;7.37;;;4.50;;
29280;SDS011;25048;49.590;11.026;2023-06-26T13:24:26;4.67;;;4.22;;
29280;SDS011;25048;49.590;11.026;2023-06-26T13:26:53;4.42;;;4.03;;
29280;SDS011;25048;49.590;11.026;2023-06-26T13:29:21;4.92;;;4.42;;
29280;SDS011;25048;49.590;11.026;2023-06-26T13:31:48;5.65;;;4.20;;
29280;SDS011;25048;49.590;11.026;2023-06-26T13:34:20;9.03;;;5.00;;
29280;SDS011;25048;49.590;11.026;2023-06-26T13:36:49;7.20;;;4.70;;
29280;SDS011;25048;49.590;11.026;2023-06-26T13:39:17;5.80;;;5.17;;
29280;SDS011;25048;49.590;11.026;2023-06-26T13:41:44;6.03;;;4.72;;
29280;SDS011;25048;49.590;11.026;2023-06-26T13:44:12;13.35;;;4.85;;
29280;SDS011;25048;49.590;11.026;2023-06-26T13:46:40;5.72;;;5.12;;
29280;SDS011;25048;49.590;11.026;2023-06-26T13:49:07;6.62;;;5.20;;
29280;SDS011;25048;49.590;11.026;2023-06-26T13:51:35;8.15;;;4.55;;
29280;SDS011;25048;49.590;11.026;2023-06-26T13:54:03;7.33;;;4.83;;
29280;SDS011;25048;49.590;11.026;2023-06-26T13:56:31;5.80;;;4.35;;
29280;SDS011;25048;49.590;11.026;2023-06-26T13:58:59;5.97;;;4.75;;
29280;SDS011;25048;49.590;11.026;2023-06-26T14:01:28;5.85;;;4.67;;
29280;SDS011;25048;49.590;11.026;2023-06-26T14:03:55;5.40;;;4.50;;
29280;SDS011;25048;49.590;11.026;2023-06-26T14:06:23;6.15;;;5.03;;
29280;SDS011;25048;49.590;11.026;2023-06-26T14:08:50;5.55;;;4.87;;
29280;SDS011;25048;49.590;11.026;2023-06-26T14:11:18;6.08;;;4.95;;
29280;SDS011;25048;49.590;11.026;2023-06-26T14:13:46;11.73;;;5.15;;
29280;SDS011;25048;49.590;11.026;2023-06-26T14:16:13;6.95;;;5.45;;
29280;SDS011;25048;49.590;11.026;2023-06-26T14:18:42;6.62;;;4.70;;
29280;SDS011;25048;49.590;11.026;2023-06-26T14:21:10;6.20;;;4.78;;
29280;SDS011;25048;49.590;11.026;2023-06-26T14:23:37;7.60;;;4.92;;
29280;SDS011;25048;49.590;11.026;2023-06-26T14:26:05;6.03;;;5.10;;
29280;SDS011;25048;49.590;11.026;2023-06-26T14:28:32;8.00;;;5.55;;
29280;SDS011;25048;49.590;11.026;2023-06-26T14:31:00;5.67;;;5.12;;
29280;SDS011;25048;49.590;11.026;2023-06-26T14:33:27;6.92;;;5.05;;
29280;SDS011;25048;49.590;11.026;2023-06-26T14:35:55;5.20;;;4.70;;
29280;SDS011;25048;49.590;11.026;2023-06-26T14:38:22;8.60;;;5.55;;
29280;SDS011;25048;49.590;11.026;2023-06-26T14:40:50;8.63;;;5.15;;
29280;SDS011;25048;49.590;11.026;2023-06-26T14:43:17;7.67;;;5.40;;
29280;SDS011;25048;49.590;11.026;2023-06-26T14:45:45;7.10;;;5.78;;
29280;SDS011;25048;49.590;11.026;2023-06-26T14:48:12;6.55;;;5.40;;
29280;SDS011;25048;49.590;11.026;2023-06-26T14:50:40;7.05;;;5.62;;